Time;durP1;ratioP1;P1;durP2;ratioP2;P2;SDS_P1;SDS_P2;PMS_P1;PMS_P2;Temp;Humidity;BMP_temperature;BMP_pressure;BME280_temperature;BME280_humidity;BME280_pressure;Samples;Min_cycle;Max_cycle;Signal;HPM_P1;HPM_P2
2021/03/06 00:02:23;;;;;;;7.65;4.43;;;;;;;;;;5053038;28;20025;-70
2021/03/06 00:04:49;;;;;;;9.15;4.72;;;;;;;;;;5053206;28;20029;-72
2021/03/06 00:07:15;;;;;;;7.88;3.97;;;;;;;;;;5052550;28;20062;-70
2021/03/06 00:09:41;;;;;;;10.13;4.28;;;;;;;;;;5034714;28;20481;-71
2021/03/06 00:12:07;;;;;;;7.57;4.30;;;;;;;;;;5052850;28;20029;-72
2021/03/06 00:14:33;;;;;;;7.65;4.20;;;;;;;;;;5052342;28;20558;-68
2021/03/06 00:17:00;;;;;;;7.95;4.13;;;;;;;;;;5051618;28;20029;-70
2021/03/06 00:19:26;;;;;;;7.68;4.15;;;;;;;;;;5034496;28;20477;-70
2021/03/06 00:21:52;;;;;;;9.80;4.10;;;;;;;;;;5052283;28;20044;-65
2021/03/06 00:24:18;;;;;;;9.82;4.30;;;;;;;;;;5052855;28;20362;-66
2021/03/06 00:26:44;;;;;;;9.32;5.07;;;;;;;;;;5052439;28;20358;-68
2021/03/06 00:29:10;;;;;;;9.38;4.70;;;;;;;;;;5052819;28;20031;-75
2021/03/06 00:31:37;;;;;;;8.65;4.35;;;;;;;;;;5024088;28;20042;-78
2021/03/06 00:34:03;;;;;;;8.70;4.28;;;;;;;;;;5050490;28;20124;-69
2021/03/06 00:36:30;;;;;;;8.63;4.38;;;;;;;;;;5049811;28;20036;-68
2021/03/06 00:38:56;;;;;;;11.90;4.60;;;;;;;;;;5052276;28;20017;-76
2021/03/06 00:41:22;;;;;;;10.98;4.32;;;;;;;;;;5034178;28;20392;-80
2021/03/06 00:43:48;;;;;;;10.70;3.97;;;;;;;;;;5052646;28;20052;-70
2021/03/06 00:46:14;;;;;;;9.05;4.07;;;;;;;;;;5052505;28;20029;-79
2021/03/06 00:48:40;;;;;;;10.18;4.55;;;;;;;;;;5052626;28;20139;-69
2021/03/06 00:51:07;;;;;;;8.20;4.57;;;;;;;;;;5051039;28;20368;-72
2021/03/06 00:53:33;;;;;;;7.32;3.90;;;;;;;;;;5032520;28;20121;-77
2021/03/06 00:55:59;;;;;;;7.60;4.00;;;;;;;;;;5015134;28;20040;-69
2021/03/06 00:58:25;;;;;;;12.10;3.95;;;;;;;;;;5052522;28;20025;-81
2021/03/06 01:00:52;;;;;;;10.80;4.32;;;;;;;;;;5034328;28;20025;-79
2021/03/06 01:03:18;;;;;;;8.20;4.38;;;;;;;;;;5052348;28;20378;-70
2021/03/06 01:05:44;;;;;;;7.57;4.05;;;;;;;;;;5051813;28;20032;-68
2021/03/06 01:08:10;;;;;;;9.30;4.28;;;;;;;;;;5035096;28;20104;-76
2021/03/06 01:10:38;;;;;;;8.60;4.28;;;;;;;;;;5052005;28;20029;-80
2021/03/06 01:13:04;;;;;;;11.38;4.45;;;;;;;;;;5052134;28;20025;-80
2021/03/06 01:15:31;;;;;;;8.30;3.97;;;;;;;;;;5052139;28;20033;-81
2021/03/06 01:17:57;;;;;;;10.02;4.43;;;;;;;;;;5034037;28;20056;-83
2021/03/06 01:20:23;;;;;;;13.95;4.75;;;;;;;;;;5051967;28;20074;-78
2021/03/06 01:22:49;;;;;;;9.02;4.63;;;;;;;;;;5051454;28;20028;-71
2021/03/06 01:25:16;;;;;;;8.40;4.25;;;;;;;;;;5028659;28;20383;-82
2021/03/06 01:27:42;;;;;;;10.70;4.15;;;;;;;;;;5031771;28;20021;-83
2021/03/06 01:30:08;;;;;;;9.48;4.63;;;;;;;;;;5042425;28;20029;-82
2021/03/06 01:32:34;;;;;;;7.55;4.20;;;;;;;;;;5032853;28;20052;-79
2021/03/06 01:35:00;;;;;;;9.15;4.50;;;;;;;;;;5033388;28;20037;-82
2021/03/06 01:37:26;;;;;;;7.43;4.38;;;;;;;;;;5032995;28;20033;-72
2021/03/06 01:39:53;;;;;;;8.05;4.05;;;;;;;;;;5050470;28;20021;-80
2021/03/06 01:42:20;;;;;;;7.82;4.43;;;;;;;;;;5044395;28;20374;-75
2021/03/06 01:44:46;;;;;;;8.70;4.43;;;;;;;;;;5029852;28;20493;-71
2021/03/06 01:47:12;;;;;;;8.73;4.53;;;;;;;;;;5042268;28;20025;-74
2021/03/06 01:49:38;;;;;;;10.23;5.25;;;;;;;;;;5030938;28;20025;-73
2021/03/06 01:52:05;;;;;;;7.70;4.70;;;;;;;;;;5041402;28;20053;-73
2021/03/06 01:54:31;;;;;;;10.13;4.82;;;;;;;;;;5051110;28;20489;-81
2021/03/06 01:56:57;;;;;;;8.68;4.57;;;;;;;;;;5050870;28;20052;-79
2021/03/06 01:59:23;;;;;;;10.13;5.03;;;;;;;;;;5050981;28;20025;-69
2021/03/06 02:01:49;;;;;;;10.52;5.18;;;;;;;;;;5048665;28;20029;-69
2021/03/06 02:04:16;;;;;;;9.90;4.95;;;;;;;;;;5051020;28;20593;-68
2021/03/06 02:06:42;;;;;;;10.85;4.82;;;;;;;;;;5050124;28;20028;-73
2021/03/06 02:09:08;;;;;;;9.35;4.45;;;;;;;;;;5050850;28;20025;-70
2021/03/06 02:11:49;;;;;;;10.93;4.90;;;;;;;;;;5050492;28;20029;-69
2021/03/06 02:14:18;;;;;;;11.23;4.30;;;;;;;;;;5050833;28;20080;-81
2021/03/06 02:16:49;;;;;;;8.55;4.40;;;;;;;;;;5050218;28;20025;-73
2021/03/06 02:19:33;;;;;;;10.30;4.47;;;;;;;;;;5050580;28;20040;-76
2021/03/06 02:22:02;;;;;;;8.23;4.18;;;;;;;;;;5051407;28;20032;-72
2021/03/06 02:24:28;;;;;;;11.00;5.10;;;;;;;;;;5033206;28;20017;-69
2021/03/06 02:27:03;;;;;;;8.98;4.72;;;;;;;;;;5051232;28;20021;-70
2021/03/06 02:29:33;;;;;;;9.27;4.60;;;;;;;;;;5033220;28;20029;-68
2021/03/06 02:32:01;;;;;;;8.30;4.03;;;;;;;;;;5050812;28;20647;-82
2021/03/06 02:34:30;;;;;;;8.27;4.10;;;;;;;;;;5051007;28;20041;-80
2021/03/06 02:37:00;;;;;;;8.13;4.38;;;;;;;;;;5033382;28;20488;-82
2021/03/06 02:39:27;;;;;;;9.25;4.63;;;;;;;;;;5051328;28;20119;-78
2021/03/06 02:41:55;;;;;;;9.20;4.78;;;;;;;;;;5033333;28;20098;-74
2021/03/06 02:44:22;;;;;;;7.93;4.10;;;;;;;;;;5051089;28;20064;-70
2021/03/06 02:46:48;;;;;;;9.60;4.07;;;;;;;;;;5050955;28;20091;-75
2021/03/06 02:49:14;;;;;;;9.70;4.28;;;;;;;;;;5050803;28;20059;-76
2021/03/06 02:51:41;;;;;;;8.50;4.10;;;;;;;;;;5050979;28;20389;-77
2021/03/06 02:54:07;;;;;;;9.43;4.22;;;;;;;;;;5050346;28;20033;-75
2021/03/06 02:56:35;;;;;;;7.05;4.03;;;;;;;;;;5066558;28;20051;-68
2021/03/06 02:59:20;;;;;;;10.05;4.35;;;;;;;;;;5051313;28;20354;-73
2021/03/06 03:01:49;;;;;;;11.20;4.20;;;;;;;;;;5054789;28;20382;-71
2021/03/06 03:04:37;;;;;;;9.25;4.47;;;;;;;;;;5054810;28;20497;-80
2021/03/06 03:07:09;;;;;;;8.63;4.07;;;;;;;;;;5036685;28;20029;-74
2021/03/06 03:09:37;;;;;;;7.77;3.90;;;;;;;;;;5036901;28;20477;-80
2021/03/06 03:12:03;;;;;;;8.10;3.83;;;;;;;;;;5054238;28;20028;-81
2021/03/06 03:14:44;;;;;;;10.20;4.53;;;;;;;;;;5054254;28;20044;-72
2021/03/06 03:17:15;;;;;;;7.82;4.00;;;;;;;;;;5054199;28;20044;-68
2021/03/06 03:19:44;;;;;;;9.80;4.30;;;;;;;;;;5036361;28;20063;-68
2021/03/06 03:22:11;;;;;;;8.27;4.40;;;;;;;;;;5036620;28;20543;-75
2021/03/06 03:24:38;;;;;;;8.32;4.10;;;;;;;;;;5054045;28;20377;-82
2021/03/06 03:27:09;;;;;;;7.78;3.67;;;;;;;;;;5054201;28;20029;-68
2021/03/06 03:29:38;;;;;;;8.30;4.28;;;;;;;;;;5034361;28;20022;-73
2021/03/06 03:32:05;;;;;;;7.57;4.20;;;;;;;;;;5013289;28;20084;-77
2021/03/06 03:34:34;;;;;;;7.68;3.80;;;;;;;;;;5018641;28;20393;-75
2021/03/06 03:37:00;;;;;;;8.50;4.10;;;;;;;;;;5033915;28;20021;-81
2021/03/06 03:39:26;;;;;;;10.40;4.25;;;;;;;;;;5033787;28;20057;-69
2021/03/06 03:41:53;;;;;;;8.00;3.70;;;;;;;;;;5034269;28;20022;-80
2021/03/06 03:44:20;;;;;;;7.43;3.70;;;;;;;;;;5034243;28;20735;-76
2021/03/06 03:46:47;;;;;;;8.00;3.85;;;;;;;;;;5032979;28;20030;-75
2021/03/06 03:49:15;;;;;;;8.13;3.85;;;;;;;;;;5033921;28;20432;-69
2021/03/06 03:51:41;;;;;;;7.25;3.58;;;;;;;;;;5033992;28;20045;-68
2021/03/06 03:54:08;;;;;;;7.35;3.90;;;;;;;;;;5032678;28;20034;-71
2021/03/06 03:56:34;;;;;;;8.63;4.40;;;;;;;;;;5034217;28;20096;-79
2021/03/06 03:59:00;;;;;;;9.50;4.45;;;;;;;;;;5033594;28;20064;-69
2021/03/06 04:01:26;;;;;;;8.60;4.45;;;;;;;;;;5034043;28;20493;-73
2021/03/06 04:03:52;;;;;;;8.55;4.50;;;;;;;;;;5033617;28;20025;-78
2021/03/06 04:06:18;;;;;;;8.50;4.15;;;;;;;;;;5033620;28;20068;-71
2021/03/06 04:08:45;;;;;;;8.80;4.20;;;;;;;;;;5032226;28;20029;-79
2021/03/06 04:11:11;;;;;;;10.48;3.95;;;;;;;;;;5032513;28;20017;-80
2021/03/06 04:13:37;;;;;;;8.48;4.47;;;;;;;;;;5033530;28;20026;-76
2021/03/06 04:16:04;;;;;;;9.55;4.80;;;;;;;;;;5033271;28;20029;-74
2021/03/06 04:18:30;;;;;;;8.52;4.22;;;;;;;;;;5033435;28;20032;-69
2021/03/06 04:20:56;;;;;;;9.98;4.20;;;;;;;;;;5033573;28;20029;-74
2021/03/06 04:23:22;;;;;;;8.77;4.45;;;;;;;;;;5033214;28;20474;-80
2021/03/06 04:25:48;;;;;;;10.07;4.43;;;;;;;;;;5033349;28;20029;-69
2021/03/06 04:28:14;;;;;;;8.02;4.32;;;;;;;;;;5033035;28;20485;-69
2021/03/06 04:30:40;;;;;;;9.27;4.13;;;;;;;;;;5033457;28;20485;-70
2021/03/06 04:33:06;;;;;;;8.80;4.22;;;;;;;;;;5033332;28;20041;-69
2021/03/06 04:35:32;;;;;;;12.43;4.78;;;;;;;;;;5033120;28;20038;-68
2021/03/06 04:37:58;;;;;;;10.00;4.40;;;;;;;;;;5032941;28;20028;-70
2021/03/06 04:40:24;;;;;;;8.32;4.32;;;;;;;;;;5033175;28;20083;-82
2021/03/06 04:42:50;;;;;;;10.48;4.47;;;;;;;;;;5032033;28;20104;-69
2021/03/06 04:45:16;;;;;;;8.18;4.10;;;;;;;;;;5031462;28;20029;-82
2021/03/06 04:47:44;;;;;;;9.80;4.30;;;;;;;;;;5032775;28;20052;-82
2021/03/06 04:50:10;;;;;;;11.40;4.72;;;;;;;;;;5031733;28;20022;-77
2021/03/06 04:52:36;;;;;;;9.10;4.55;;;;;;;;;;5032385;28;20025;-69
2021/03/06 04:55:02;;;;;;;7.75;3.97;;;;;;;;;;5032344;28;20112;-69
2021/03/06 04:57:29;;;;;;;8.00;4.03;;;;;;;;;;5032401;28;20410;-71
2021/03/06 04:59:55;;;;;;;9.98;4.55;;;;;;;;;;5032791;28;20079;-83
2021/03/06 05:15:37;;;;;;;9.30;4.60;;;;;;;;;;5085398;28;20380;-80
2021/03/06 05:18:03;;;;;;;9.20;4.80;;;;;;;;;;5072008;28;20705;-81
2021/03/06 05:20:29;;;;;;;9.25;4.72;;;;;;;;;;5067070;28;20124;-68
2021/03/06 05:22:55;;;;;;;11.35;4.72;;;;;;;;;;5068936;28;20516;-82
2021/03/06 05:25:21;;;;;;;9.07;4.68;;;;;;;;;;5068770;28;20504;-82
2021/03/06 05:27:51;;;;;;;9.90;4.68;;;;;;;;;;5068427;28;20059;-83
2021/03/06 05:30:17;;;;;;;8.60;4.68;;;;;;;;;;5067951;28;20021;-68
2021/03/06 05:32:43;;;;;;;8.65;4.70;;;;;;;;;;5067072;28;20393;-79
2021/03/06 05:35:10;;;;;;;7.93;4.55;;;;;;;;;;5067910;28;20047;-69
2021/03/06 05:37:36;;;;;;;9.65;4.93;;;;;;;;;;5067842;28;20539;-69
2021/03/06 05:40:03;;;;;;;9.55;4.30;;;;;;;;;;5067226;28;20477;-69
2021/03/06 05:42:29;;;;;;;10.57;4.78;;;;;;;;;;5066795;28;20025;-71
2021/03/06 05:44:56;;;;;;;10.45;5.18;;;;;;;;;;5067539;28;20029;-82
2021/03/06 05:47:23;;;;;;;9.65;4.57;;;;;;;;;;5067993;28;20032;-75
2021/03/06 05:49:49;;;;;;;9.25;4.78;;;;;;;;;;5067918;28;20021;-74
2021/03/06 05:52:20;;;;;;;10.75;4.95;;;;;;;;;;5068357;28;20056;-77
2021/03/06 05:54:49;;;;;;;9.75;4.47;;;;;;;;;;5067958;28;20052;-74
2021/03/06 05:57:16;;;;;;;9.05;4.65;;;;;;;;;;5068047;28;20036;-70
2021/03/06 05:59:44;;;;;;;8.65;4.70;;;;;;;;;;5068188;28;20025;-73
2021/03/06 06:02:10;;;;;;;10.07;4.43;;;;;;;;;;5067851;28;20051;-72
2021/03/06 06:04:36;;;;;;;9.23;4.78;;;;;;;;;;5066202;28;20060;-73
2021/03/06 06:07:03;;;;;;;10.05;4.80;;;;;;;;;;5068001;28;20044;-69
2021/03/06 06:09:29;;;;;;;9.20;4.90;;;;;;;;;;5067638;28;20032;-76
2021/03/06 06:11:55;;;;;;;10.82;5.18;;;;;;;;;;5066584;28;20024;-69
2021/03/06 06:14:21;;;;;;;10.07;5.28;;;;;;;;;;5066739;28;20093;-69
2021/03/06 06:16:47;;;;;;;10.10;4.78;;;;;;;;;;5054072;28;20393;-78
2021/03/06 06:19:14;;;;;;;9.35;4.85;;;;;;;;;;5054104;28;20021;-70
2021/03/06 06:21:45;;;;;;;8.20;4.55;;;;;;;;;;5054627;28;20025;-73
2021/03/06 06:24:13;;;;;;;9.55;4.53;;;;;;;;;;5054240;28;20098;-82
2021/03/06 06:26:40;;;;;;;9.57;5.07;;;;;;;;;;5054660;28;20017;-70
2021/03/06 06:29:06;;;;;;;8.50;4.45;;;;;;;;;;5052880;28;20044;-81
2021/03/06 06:31:33;;;;;;;9.50;4.78;;;;;;;;;;5054471;28;20584;-69
2021/03/06 06:33:59;;;;;;;9.02;4.88;;;;;;;;;;5053792;28;20096;-78
2021/03/06 06:36:38;;;;;;;8.52;4.50;;;;;;;;;;5052157;28;20028;-72
2021/03/06 06:39:05;;;;;;;9.60;4.90;;;;;;;;;;5034659;28;20374;-71
2021/03/06 06:41:51;;;;;;;8.82;4.50;;;;;;;;;;5051025;28;20052;-77
2021/03/06 06:44:17;;;;;;;8.88;4.60;;;;;;;;;;5052142;28;20073;-69
2021/03/06 06:46:43;;;;;;;11.85;4.90;;;;;;;;;;5052704;28;20492;-72
2021/03/06 06:49:10;;;;;;;10.38;4.75;;;;;;;;;;5052724;28;20056;-69
2021/03/06 06:51:36;;;;;;;8.50;4.70;;;;;;;;;;5052657;28;20033;-68
2021/03/06 06:54:15;;;;;;;10.05;4.57;;;;;;;;;;5052193;28;20029;-70
2021/03/06 06:56:41;;;;;;;9.75;4.72;;;;;;;;;;5053963;28;20028;-84
2021/03/06 06:59:08;;;;;;;10.93;5.28;;;;;;;;;;5053432;28;20024;-70
2021/03/06 07:01:36;;;;;;;9.48;4.72;;;;;;;;;;5052509;28;20029;-71
2021/03/06 07:04:09;;;;;;;8.40;4.20;;;;;;;;;;5051881;28;20045;-70
2021/03/06 07:06:36;;;;;;;10.27;4.47;;;;;;;;;;5053389;28;20029;-71
2021/03/06 07:09:05;;;;;;;9.55;4.80;;;;;;;;;;5051834;28;20036;-81
2021/03/06 07:11:31;;;;;;;8.07;4.30;;;;;;;;;;5051950;28;20021;-69
2021/03/06 07:13:57;;;;;;;8.05;4.22;;;;;;;;;;5052850;28;20112;-70
2021/03/06 07:16:23;;;;;;;8.07;3.78;;;;;;;;;;5053277;28;20025;-81
2021/03/06 07:18:59;;;;;;;8.50;4.43;;;;;;;;;;5052970;28;20033;-70
2021/03/06 07:21:25;;;;;;;8.40;3.97;;;;;;;;;;5052155;28;20384;-74
2021/03/06 07:23:52;;;;;;;9.07;4.72;;;;;;;;;;5052806;28;20033;-79
2021/03/06 07:26:18;;;;;;;7.65;4.38;;;;;;;;;;5052463;28;20049;-81
2021/03/06 07:28:44;;;;;;;8.45;4.15;;;;;;;;;;5052488;28;20087;-72
2021/03/06 07:31:10;;;;;;;8.77;4.22;;;;;;;;;;5053000;28;20500;-71
2021/03/06 07:33:37;;;;;;;7.30;3.60;;;;;;;;;;5052816;28;20082;-82
2021/03/06 07:36:05;;;;;;;8.45;3.50;;;;;;;;;;5031918;28;20080;-81
2021/03/06 07:38:31;;;;;;;7.28;4.00;;;;;;;;;;5039661;28;20035;-68
2021/03/06 07:41:00;;;;;;;8.27;4.38;;;;;;;;;;5051675;28;20021;-72
2021/03/06 07:43:30;;;;;;;8.45;3.97;;;;;;;;;;5050961;28;20060;-82
2021/03/06 07:45:57;;;;;;;8.23;4.03;;;;;;;;;;5052357;28;20029;-78
2021/03/06 07:48:28;;;;;;;9.25;3.90;;;;;;;;;;5053826;28;20108;-69
2021/03/06 07:50:54;;;;;;;8.93;3.78;;;;;;;;;;5053644;28;20025;-74
2021/03/06 07:53:22;;;;;;;9.27;3.40;;;;;;;;;;5051912;28;20100;-85
2021/03/06 07:55:48;;;;;;;10.80;3.78;;;;;;;;;;5053503;28;20029;-89
2021/03/06 07:58:14;;;;;;;7.68;3.65;;;;;;;;;;5053571;28;20108;-69
2021/03/06 08:00:43;;;;;;;10.70;4.88;;;;;;;;;;5050855;28;20025;-77
2021/03/06 08:03:21;;;;;;;27.17;15.60;;;;;;;;;;5052220;28;20029;-82
2021/03/06 08:05:47;;;;;;;20.40;13.65;;;;;;;;;;5050060;28;20028;-76
2021/03/06 08:08:32;;;;;;;21.10;13.15;;;;;;;;;;5036491;28;20025;-79
2021/03/06 08:11:06;;;;;;;24.63;11.98;;;;;;;;;;5051234;28;20025;-70
2021/03/06 08:13:35;;;;;;;18.75;11.68;;;;;;;;;;5049631;28;20044;-68
2021/03/06 08:16:23;;;;;;;18.70;10.73;;;;;;;;;;5049830;28;20029;-74
2021/03/06 08:18:53;;;;;;;20.15;10.20;;;;;;;;;;5031105;28;20072;-83
2021/03/06 08:21:27;;;;;;;16.40;9.57;;;;;;;;;;5031558;28;20026;-69
2021/03/06 08:24:12;;;;;;;12.07;7.82;;;;;;;;;;5031610;28;20461;-85
2021/03/06 08:26:38;;;;;;;13.25;8.35;;;;;;;;;;5052070;28;20028;-74
2021/03/06 08:29:20;;;;;;;13.93;8.07;;;;;;;;;;5050727;28;20416;-70
2021/03/06 08:31:46;;;;;;;13.88;7.80;;;;;;;;;;5033175;28;20041;-77
2021/03/06 08:34:34;;;;;;;12.90;6.57;;;;;;;;;;5046585;28;20045;-74
2021/03/06 08:37:21;;;;;;;10.93;7.00;;;;;;;;;;5031191;28;20041;-79
2021/03/06 08:39:59;;;;;;;13.35;6.55;;;;;;;;;;5046276;28;20013;-72
2021/03/06 08:42:30;;;;;;;11.63;6.63;;;;;;;;;;5031445;28;20029;-71
2021/03/06 08:44:58;;;;;;;13.25;6.22;;;;;;;;;;5030853;28;20507;-70
2021/03/06 08:47:24;;;;;;;9.82;5.20;;;;;;;;;;5037263;28;20477;-78
2021/03/06 08:49:53;;;;;;;8.30;5.07;;;;;;;;;;5050830;28;20021;-72
2021/03/06 08:52:20;;;;;;;11.75;5.40;;;;;;;;;;5050892;28;20025;-69
2021/03/06 08:54:46;;;;;;;9.48;5.15;;;;;;;;;;5049244;28;20108;-69
2021/03/06 08:57:31;;;;;;;8.23;5.00;;;;;;;;;;5050840;28;20469;-77
2021/03/06 08:59:57;;;;;;;9.40;5.10;;;;;;;;;;5051086;28;20032;-73
2021/03/06 09:02:28;;;;;;;10.75;5.05;;;;;;;;;;5050175;28;20021;-84
2021/03/06 09:05:00;;;;;;;14.20;5.07;;;;;;;;;;5051749;28;20040;-91
2021/03/06 09:07:27;;;;;;;9.02;4.97;;;;;;;;;;5051670;28;20021;-75
2021/03/06 09:09:53;;;;;;;10.23;5.18;;;;;;;;;;5053439;28;20057;-92
2021/03/06 09:12:19;;;;;;;35.28;11.80;;;;;;;;;;5052056;28;20044;-89
2021/03/06 09:14:46;;;;;;;19.88;7.20;;;;;;;;;;5051745;28;20037;-82
2021/03/06 09:17:12;;;;;;;17.73;7.80;;;;;;;;;;5053285;28;20029;-89
2021/03/06 09:19:39;;;;;;;20.02;7.63;;;;;;;;;;5052941;28;20014;-68
2021/03/06 09:22:06;;;;;;;22.10;7.85;;;;;;;;;;5048233;28;20097;-90
2021/03/06 09:24:44;;;;;;;31.20;7.70;;;;;;;;;;5066124;28;20037;-71
2021/03/06 09:27:10;;;;;;;25.20;8.55;;;;;;;;;;5061730;28;20104;-69
2021/03/06 09:29:37;;;;;;;18.85;6.93;;;;;;;;;;5050636;28;20028;-92
2021/03/06 09:32:03;;;;;;;23.55;7.25;;;;;;;;;;5051364;28;20060;-83
2021/03/06 09:34:29;;;;;;;21.55;6.82;;;;;;;;;;5052323;28;20069;-72
2021/03/06 09:36:55;;;;;;;20.92;6.35;;;;;;;;;;5052039;28;20385;-69
2021/03/06 09:39:25;;;;;;;14.65;5.93;;;;;;;;;;5052050;28;20028;-69
2021/03/06 09:41:51;;;;;;;13.95;6.03;;;;;;;;;;5052095;28;20063;-69
2021/03/06 09:44:17;;;;;;;14.32;5.78;;;;;;;;;;5050509;28;20029;-76
2021/03/06 09:46:44;;;;;;;18.33;6.57;;;;;;;;;;5051933;28;20025;-89
2021/03/06 09:49:13;;;;;;;14.85;5.90;;;;;;;;;;5051669;28;20060;-90
2021/03/06 09:51:43;;;;;;;18.35;6.28;;;;;;;;;;5053870;28;20026;-74
2021/03/06 09:54:10;;;;;;;20.50;6.68;;;;;;;;;;5056609;28;20043;-72
2021/03/06 09:56:45;;;;;;;18.23;6.00;;;;;;;;;;5055482;28;20021;-79
2021/03/06 09:59:11;;;;;;;22.90;6.93;;;;;;;;;;5052241;28;20106;-73
2021/03/06 10:01:37;;;;;;;25.17;4.90;;;;;;;;;;5054410;28;20388;-86
2021/03/06 10:04:14;;;;;;;30.25;7.13;;;;;;;;;;5055388;28;20441;-86
2021/03/06 10:06:40;;;;;;;28.90;6.22;;;;;;;;;;5056018;28;20389;-72
2021/03/06 10:09:07;;;;;;;20.15;5.03;;;;;;;;;;5056146;28;20026;-86
2021/03/06 10:11:38;;;;;;;24.73;5.18;;;;;;;;;;5054760;28;20025;-71
2021/03/06 10:14:05;;;;;;;17.58;4.32;;;;;;;;;;5055423;28;20504;-88
2021/03/06 10:16:42;;;;;;;22.70;4.50;;;;;;;;;;5055187;28;20056;-90
2021/03/06 10:19:08;;;;;;;16.55;4.80;;;;;;;;;;5054713;28;20377;-69
2021/03/06 10:21:34;;;;;;;16.42;4.63;;;;;;;;;;5055400;28;20505;-87
2021/03/06 10:24:04;;;;;;;13.70;4.07;;;;;;;;;;5055057;28;20473;-90
2021/03/06 10:26:31;;;;;;;12.77;3.75;;;;;;;;;;5054200;28;20025;-90
2021/03/06 10:29:01;;;;;;;15.05;3.95;;;;;;;;;;5056021;28;20021;-90
2021/03/06 10:31:33;;;;;;;16.63;4.22;;;;;;;;;;5055929;28;20018;-91
2021/03/06 10:34:00;;;;;;;12.35;3.72;;;;;;;;;;5055846;28;20532;-90
2021/03/06 10:36:26;;;;;;;11.40;3.28;;;;;;;;;;5055051;28;20128;-87
2021/03/06 10:39:11;;;;;;;11.70;3.78;;;;;;;;;;5056088;28;20057;-86
2021/03/06 10:41:37;;;;;;;12.45;3.88;;;;;;;;;;5056257;28;20017;-88
2021/03/06 10:44:03;;;;;;;8.85;3.15;;;;;;;;;;5055825;28;20037;-82
2021/03/06 10:46:30;;;;;;;7.57;3.03;;;;;;;;;;5055309;28;20096;-78
2021/03/06 10:49:04;;;;;;;7.85;3.10;;;;;;;;;;5055765;28;20025;-87
2021/03/06 10:51:40;;;;;;;8.05;2.85;;;;;;;;;;5055841;28;20028;-90
2021/03/06 10:54:07;;;;;;;8.20;2.80;;;;;;;;;;5055522;28;20108;-69
2021/03/06 10:56:33;;;;;;;6.15;2.58;;;;;;;;;;5055527;28;20066;-86
2021/03/06 10:58:59;;;;;;;8.73;3.30;;;;;;;;;;5055624;28;20137;-88
2021/03/06 11:01:25;;;;;;;6.03;2.63;;;;;;;;;;5055630;28;20025;-88
2021/03/06 11:03:52;;;;;;;9.02;3.20;;;;;;;;;;5044014;28;20025;-71
2021/03/06 11:06:19;;;;;;;6.22;2.58;;;;;;;;;;5034630;28;20481;-72
2021/03/06 11:08:58;;;;;;;7.18;2.70;;;;;;;;;;5035640;28;20034;-90
2021/03/06 11:11:24;;;;;;;6.57;2.60;;;;;;;;;;5035716;28;20029;-89
2021/03/06 11:13:51;;;;;;;7.22;2.80;;;;;;;;;;5035432;28;20042;-90
2021/03/06 11:16:17;;;;;;;4.88;2.30;;;;;;;;;;5035323;28;20036;-79
2021/03/06 11:18:43;;;;;;;6.70;2.05;;;;;;;;;;5035467;28;20021;-75
2021/03/06 11:21:12;;;;;;;6.88;2.70;;;;;;;;;;5034834;28;20408;-91
2021/03/06 11:23:41;;;;;;;4.65;1.90;;;;;;;;;;5034004;28;20426;-89
2021/03/06 11:26:07;;;;;;;8.05;2.35;;;;;;;;;;5035326;28;20029;-82
2021/03/06 11:28:33;;;;;;;5.28;2.15;;;;;;;;;;5035188;28;20052;-91
2021/03/06 11:31:01;;;;;;;4.97;2.17;;;;;;;;;;5033784;28;20047;-78
2021/03/06 11:33:27;;;;;;;4.57;1.92;;;;;;;;;;5034067;28;20060;-82
2021/03/06 11:35:53;;;;;;;4.28;2.08;;;;;;;;;;5034990;28;20033;-91
2021/03/06 11:38:20;;;;;;;5.75;2.00;;;;;;;;;;5034550;28;20030;-80
2021/03/06 11:40:51;;;;;;;7.43;2.35;;;;;;;;;;5035175;28;20067;-83
2021/03/06 11:43:17;;;;;;;4.77;1.90;;;;;;;;;;5035238;28;20116;-78
2021/03/06 11:45:43;;;;;;;5.10;1.92;;;;;;;;;;5035417;28;20072;-86
2021/03/06 11:48:10;;;;;;;6.20;2.15;;;;;;;;;;5033829;28;20022;-68
2021/03/06 11:50:41;;;;;;;4.00;1.80;;;;;;;;;;5034465;28;20021;-90
2021/03/06 11:53:07;;;;;;;4.53;1.90;;;;;;;;;;5034823;28;20022;-72
2021/03/06 11:55:34;;;;;;;3.72;1.70;;;;;;;;;;5033369;28;20120;-89
2021/03/06 11:58:00;;;;;;;3.08;1.58;;;;;;;;;;5034071;28;20021;-79
2021/03/06 12:00:30;;;;;;;5.25;2.00;;;;;;;;;;5035192;28;20099;-90
2021/03/06 12:02:56;;;;;;;4.88;2.00;;;;;;;;;;5033912;28;20104;-87
2021/03/06 12:05:22;;;;;;;4.20;1.63;;;;;;;;;;5034716;28;20116;-88
2021/03/06 12:07:49;;;;;;;3.15;1.42;;;;;;;;;;5034496;28;20025;-69
2021/03/06 12:10:16;;;;;;;3.10;1.52;;;;;;;;;;5034787;28;20033;-78
2021/03/06 12:12:44;;;;;;;3.85;1.55;;;;;;;;;;5033898;28;20025;-71
2021/03/06 12:15:11;;;;;;;4.32;1.90;;;;;;;;;;5034043;28;20057;-90
2021/03/06 12:17:37;;;;;;;3.38;1.50;;;;;;;;;;5034406;28;20025;-91
2021/03/06 12:20:04;;;;;;;3.22;1.40;;;;;;;;;;5034333;28;20025;-78
2021/03/06 12:22:30;;;;;;;4.35;1.85;;;;;;;;;;5034012;28;20469;-76
2021/03/06 12:24:56;;;;;;;2.72;1.30;;;;;;;;;;5034172;28;20519;-90
2021/03/06 12:27:22;;;;;;;3.30;1.42;;;;;;;;;;5033981;28;20022;-90
2021/03/06 12:29:48;;;;;;;3.20;1.67;;;;;;;;;;5034028;28;20025;-90
2021/03/06 12:32:14;;;;;;;2.63;1.17;;;;;;;;;;5034076;28;20385;-90
2021/03/06 12:34:40;;;;;;;4.13;1.60;;;;;;;;;;5033530;28;20021;-88
2021/03/06 12:37:07;;;;;;;3.00;1.50;;;;;;;;;;5033752;28;20027;-89
2021/03/06 12:39:33;;;;;;;3.15;1.42;;;;;;;;;;5033883;28;20056;-91
2021/03/06 12:41:59;;;;;;;3.15;1.40;;;;;;;;;;5033824;28;20033;-88
2021/03/06 12:44:26;;;;;;;3.03;1.30;;;;;;;;;;5034389;28;20075;-90
2021/03/06 12:46:52;;;;;;;2.75;1.10;;;;;;;;;;5033848;28;20097;-92
2021/03/06 12:49:18;;;;;;;3.17;1.50;;;;;;;;;;5032528;28;20021;-78
2021/03/06 12:51:45;;;;;;;3.22;1.60;;;;;;;;;;5034042;28;20018;-91
2021/03/06 12:54:11;;;;;;;2.85;1.50;;;;;;;;;;5033909;28;20025;-89
2021/03/06 12:56:37;;;;;;;3.30;1.60;;;;;;;;;;5032495;28;20033;-85
2021/03/06 12:59:04;;;;;;;3.22;1.50;;;;;;;;;;5032470;28;20080;-87
2021/03/06 13:01:30;;;;;;;4.05;1.55;;;;;;;;;;5033595;28;20083;-75
2021/03/06 13:03:56;;;;;;;4.10;1.60;;;;;;;;;;5038391;28;20025;-84
2021/03/06 13:06:22;;;;;;;3.75;1.50;;;;;;;;;;5053251;28;20078;-92
2021/03/06 13:08:49;;;;;;;2.80;1.45;;;;;;;;;;5053417;28;20473;-70
2021/03/06 13:11:15;;;;;;;3.13;1.40;;;;;;;;;;5053526;28;20025;-80
2021/03/06 13:13:41;;;;;;;4.28;1.50;;;;;;;;;;5053462;28;20615;-91
2021/03/06 13:16:07;;;;;;;3.28;1.30;;;;;;;;;;5053438;28;20056;-89
2021/03/06 13:18:33;;;;;;;2.60;1.20;;;;;;;;;;5053466;28;20036;-86
2021/03/06 13:21:00;;;;;;;3.58;1.65;;;;;;;;;;5053485;28;20583;-71
2021/03/06 13:23:26;;;;;;;2.88;1.35;;;;;;;;;;5053445;28;20118;-90
2021/03/06 13:25:52;;;;;;;3.28;1.60;;;;;;;;;;5055279;28;20021;-89
2021/03/06 13:28:18;;;;;;;3.30;1.45;;;;;;;;;;5057489;28;20103;-86
2021/03/06 13:30:44;;;;;;;3.20;1.55;;;;;;;;;;5057409;28;20074;-90
2021/03/06 13:33:11;;;;;;;3.08;1.50;;;;;;;;;;5055926;28;20025;-69
2021/03/06 13:35:37;;;;;;;3.28;1.38;;;;;;;;;;5057449;28;20051;-91
2021/03/06 13:38:03;;;;;;;3.28;1.58;;;;;;;;;;5056183;28;20029;-87
2021/03/06 13:40:29;;;;;;;4.65;1.45;;;;;;;;;;5058296;28;20048;-90
2021/03/06 13:42:55;;;;;;;4.10;1.50;;;;;;;;;;5057317;28;20036;-91
2021/03/06 13:45:21;;;;;;;3.90;1.63;;;;;;;;;;5057163;28;20040;-90
2021/03/06 13:47:47;;;;;;;3.38;1.48;;;;;;;;;;5057133;28;20492;-88
2021/03/06 13:50:14;;;;;;;3.35;1.52;;;;;;;;;;5057183;28;20029;-90
2021/03/06 13:52:40;;;;;;;3.53;1.70;;;;;;;;;;5057031;28;20100;-90
2021/03/06 13:55:08;;;;;;;3.40;1.50;;;;;;;;;;5055933;28;20025;-70
2021/03/06 13:57:34;;;;;;;3.60;1.75;;;;;;;;;;5056553;28;20025;-87
2021/03/06 14:00:00;;;;;;;3.80;1.67;;;;;;;;;;5055409;28;20025;-90
2021/03/06 14:02:26;;;;;;;4.22;2.17;;;;;;;;;;5056504;28;20032;-90
2021/03/06 14:04:52;;;;;;;3.03;1.52;;;;;;;;;;5055248;28;20037;-90
2021/03/06 14:07:18;;;;;;;4.82;1.50;;;;;;;;;;5057688;28;20025;-68
2021/03/06 14:09:44;;;;;;;2.97;1.55;;;;;;;;;;5056710;28;20119;-89
2021/03/06 14:12:10;;;;;;;3.20;1.60;;;;;;;;;;5056308;28;20147;-89
2021/03/06 14:14:37;;;;;;;3.13;1.52;;;;;;;;;;5056325;28;20056;-90
2021/03/06 14:17:03;;;;;;;3.30;1.58;;;;;;;;;;5056512;28;20078;-74
2021/03/06 14:19:29;;;;;;;3.75;1.52;;;;;;;;;;5056522;28;20051;-77
2021/03/06 14:21:55;;;;;;;4.70;1.60;;;;;;;;;;5056466;28;20025;-90
2021/03/06 14:24:21;;;;;;;3.50;1.63;;;;;;;;;;5056294;28;20516;-90
2021/03/06 14:26:47;;;;;;;4.57;1.60;;;;;;;;;;5056427;28;20079;-82
2021/03/06 14:29:13;;;;;;;3.50;1.67;;;;;;;;;;5056456;28;20025;-90
2021/03/06 14:31:39;;;;;;;4.18;1.77;;;;;;;;;;5056071;28;20047;-84
2021/03/06 14:34:07;;;;;;;4.28;1.88;;;;;;;;;;5055956;28;20032;-89
2021/03/06 14:36:37;;;;;;;5.15;2.00;;;;;;;;;;5055654;28;20021;-76
2021/03/06 14:39:04;;;;;;;4.00;1.60;;;;;;;;;;5056310;28;20017;-85
2021/03/06 14:41:30;;;;;;;4.78;2.28;;;;;;;;;;5056154;28;20092;-91
2021/03/06 14:43:56;;;;;;;5.03;2.28;;;;;;;;;;5055756;28;20029;-91
2021/03/06 14:46:22;;;;;;;4.57;2.40;;;;;;;;;;5055943;28;20021;-88
2021/03/06 14:48:48;;;;;;;6.18;2.20;;;;;;;;;;5056077;28;20029;-89
2021/03/06 14:51:14;;;;;;;5.07;2.25;;;;;;;;;;5055775;28;20056;-89
2021/03/06 14:53:40;;;;;;;4.90;2.53;;;;;;;;;;5054556;28;20496;-68
2021/03/06 14:56:06;;;;;;;8.20;2.72;;;;;;;;;;5056062;28;20092;-89